Decoded Metar for LEDA (LLEIDA in SPAIN) (IATA:ILD) | Meteo·Mobile Aviation Weather
aviador You're here:

LEDA Decoded Metar

LLEIDA in SPAIN
Report Time2019-07-22 13:30:00
UTC Time2019-07-22 13:43:54
Flight Rules vfr VFR
Wind160° at 05 kt
W.Decomp.*RWY 13: 4.3 kt HW 2.5 kt RCW
Visibility9999 m
Phenomena:N/A
Clouds:N/A
Expected CloudBase > 12,400 ft AGL from Temp-Dew spread
CeilingNone
Temp36°C (ISA +23)
Dew Point05°C (14% RH)
Heat Index33.5°C
AAT32.9°C
QNH1021 hPa
Density Alt3,638 ft
Elevation1,152 ft
Report Wrong Elevation
Raw Report
LEDA 221330Z 16005KT 100V210 CAVOK 36/05 Q1021=

Extra information for LEDA:More info

Metar Taf Metar & Taf Last 4 Metars F.Rules Stats Wind Profile Meteogram Temp Stats Airport Information Weather charts Add Link Nearby VenuesMetar ALERT Operation Metar Decoded Social comments